Time;durP1;ratioP1;P1;durP2;ratioP2;P2;SDS_P1;SDS_P2;PMS_P1;PMS_P2;Temp;Humidity;BMP_temperature;BMP_pressure;BME280_temperature;BME280_humidity;BME280_pressure;Samples;Min_cycle;Max_cycle;Signal;HPM_P1;HPM_P2
2023/06/15 00:00:30;;;;;;;4.70;3.78;;;;;;;25.37;35.42;101766.53;5033177;28;20073;-67
2023/06/15 00:02:56;;;;;;;5.30;3.92;;;;;;;25.39;35.40;101764.56;5032921;28;20425;-67
2023/06/15 00:05:21;;;;;;;4.95;4.05;;;;;;;25.40;35.03;101768.91;5032663;28;20128;-67
2023/06/15 00:07:46;;;;;;;4.78;3.92;;;;;;;25.39;35.48;101767.25;5032177;28;20037;-66
2023/06/15 00:10:12;;;;;;;5.70;4.10;;;;;;;25.38;34.93;101764.72;5032629;28;20082;-67
2023/06/15 00:12:37;;;;;;;5.72;3.92;;;;;;;25.39;35.39;101774.38;5032912;28;20041;-66
2023/06/15 00:15:03;;;;;;;5.43;4.07;;;;;;;25.38;34.97;101770.88;5032683;28;20388;-67
2023/06/15 00:17:29;;;;;;;6.15;4.35;;;;;;;25.35;34.78;101768.50;5032663;28;20279;-66
2023/06/15 00:19:57;;;;;;;5.22;4.10;;;;;;;25.35;35.17;101771.19;5032933;28;20452;-66
2023/06/15 00:22:26;;;;;;;5.53;3.80;;;;;;;25.35;35.07;101765.84;5031694;28;20095;-66
2023/06/15 00:24:52;;;;;;;6.53;3.78;;;;;;;25.33;35.25;101762.50;5032440;28;20479;-68
2023/06/15 00:27:18;;;;;;;5.28;3.83;;;;;;;25.34;35.03;101764.16;5032336;28;20025;-66
2023/06/15 00:29:43;;;;;;;6.72;4.40;;;;;;;25.35;35.47;101772.00;5032279;28;20091;-67
2023/06/15 00:32:08;;;;;;;8.43;4.00;;;;;;;25.34;35.00;101774.81;5031955;28;20077;-68
2023/06/15 00:34:34;;;;;;;6.97;4.20;;;;;;;25.33;35.41;101774.00;5032193;28;20269;-67
2023/06/15 00:36:59;;;;;;;6.18;3.70;;;;;;;25.33;35.48;101782.00;5032752;28;20044;-67
2023/06/15 00:39:24;;;;;;;5.18;3.83;;;;;;;25.33;35.10;101779.34;5031764;28;20033;-65
2023/06/15 00:41:50;;;;;;;6.37;4.00;;;;;;;25.31;35.17;101777.78;5030900;28;20425;-67
2023/06/15 00:44:15;;;;;;;7.43;4.18;;;;;;;25.29;35.05;101777.97;5031789;28;20290;-66
2023/06/15 00:46:40;;;;;;;7.05;4.43;;;;;;;25.30;35.48;101774.28;5032208;28;20036;-66
2023/06/15 00:49:06;;;;;;;5.30;3.95;;;;;;;25.30;35.09;101784.13;5031824;28;20139;-67
2023/06/15 00:51:34;;;;;;;5.50;3.95;;;;;;;25.27;35.31;101777.22;5031339;28;20469;-67
2023/06/15 00:54:00;;;;;;;5.40;3.70;;;;;;;25.26;35.59;101780.03;5031667;28;20044;-67
2023/06/15 00:56:29;;;;;;;5.28;3.97;;;;;;;25.28;35.71;101783.47;5031035;28;20036;-66
2023/06/15 00:58:55;;;;;;;5.47;3.75;;;;;;;25.25;35.23;101779.22;5032000;28;20033;-67
2023/06/15 01:01:21;;;;;;;7.18;3.97;;;;;;;25.25;35.20;101775.72;5031006;28;20032;-67
2023/06/15 01:03:46;;;;;;;5.80;4.30;;;;;;;25.24;35.48;101774.88;5031507;28;20382;-66
2023/06/15 01:06:16;;;;;;;5.18;4.05;;;;;;;25.26;35.33;101777.38;5031825;28;20497;-68
2023/06/15 01:08:45;;;;;;;6.47;3.83;;;;;;;25.19;35.38;101766.47;5031987;28;20024;-65
2023/06/15 01:11:12;;;;;;;6.50;4.20;;;;;;;25.25;35.47;101779.22;5032022;28;20110;-65
2023/06/15 01:13:38;;;;;;;6.07;4.35;;;;;;;25.22;35.39;101776.84;5031447;28;20064;-68
2023/06/15 01:16:09;;;;;;;5.18;3.53;;;;;;;25.23;35.45;101781.22;5031180;28;20033;-67
2023/06/15 01:18:36;;;;;;;6.93;4.13;;;;;;;25.22;35.86;101770.69;5030791;28;20056;-68
2023/06/15 01:21:04;;;;;;;7.18;4.05;;;;;;;25.23;35.60;101775.88;5031788;28;20029;-66
2023/06/15 01:23:42;;;;;;;6.55;4.20;;;;;;;25.20;36.11;101775.31;5031455;28;20032;-68
2023/06/15 01:26:10;;;;;;;5.35;3.97;;;;;;;25.20;35.88;101777.97;5030492;28;20087;-66
2023/06/15 01:28:41;;;;;;;5.30;3.72;;;;;;;25.21;35.78;101780.50;5031478;28;20098;-67
2023/06/15 01:31:08;;;;;;;5.03;3.55;;;;;;;25.19;35.83;101784.31;5031263;28;20076;-68
2023/06/15 01:33:34;;;;;;;5.60;3.80;;;;;;;25.17;35.66;101785.28;5031462;28;20068;-67
2023/06/15 01:35:59;;;;;;;4.95;3.95;;;;;;;25.19;35.67;101793.16;5031362;28;20048;-65
2023/06/15 01:38:30;;;;;;;7.55;4.13;;;;;;;25.17;35.63;101787.97;5031069;28;20083;-66
2023/06/15 01:40:57;;;;;;;5.32;3.78;;;;;;;25.17;35.74;101785.28;5031664;28;20053;-67
2023/06/15 01:43:28;;;;;;;5.95;3.80;;;;;;;25.16;35.92;101791.59;5030685;28;20572;-67
2023/06/15 01:45:55;;;;;;;6.05;4.03;;;;;;;25.16;35.68;101785.44;5031144;28;20068;-68
2023/06/15 01:48:21;;;;;;;6.05;4.43;;;;;;;25.16;36.06;101785.44;5031131;28;20040;-66
2023/06/15 01:50:48;;;;;;;6.50;4.05;;;;;;;25.14;35.96;101787.44;5029491;28;20041;-66
2023/06/15 01:53:14;;;;;;;6.45;3.78;;;;;;;25.13;35.82;101785.75;5030602;28;20033;-67
2023/06/15 01:55:39;;;;;;;5.25;3.85;;;;;;;25.13;36.10;101786.59;5031082;28;20090;-65
2023/06/15 01:58:05;;;;;;;5.93;3.75;;;;;;;25.15;36.06;101786.41;5031073;28;20374;-67
2023/06/15 02:00:31;;;;;;;6.43;4.05;;;;;;;25.14;35.65;101782.09;5030479;28;20040;-67
2023/06/15 02:02:56;;;;;;;5.22;3.80;;;;;;;25.13;36.14;101791.06;5028825;28;20069;-67
2023/06/15 02:05:21;;;;;;;5.67;3.73;;;;;;;25.10;35.96;101783.38;5031179;28;20030;-66
2023/06/15 02:07:46;;;;;;;5.43;3.90;;;;;;;25.12;35.77;101790.25;5030790;28;21100;-67
2023/06/15 02:10:12;;;;;;;5.27;3.97;;;;;;;25.11;35.95;101785.88;5031564;28;20045;-69
2023/06/15 02:12:37;;;;;;;5.60;4.10;;;;;;;25.12;36.01;101790.25;5030909;28;20278;-66
2023/06/15 02:15:03;;;;;;;6.70;4.20;;;;;;;25.11;35.92;101783.22;5030861;28;20044;-66
2023/06/15 02:17:32;;;;;;;6.80;4.20;;;;;;;25.11;35.98;101785.88;5030469;28;21119;-66
2023/06/15 02:19:57;;;;;;;6.32;4.22;;;;;;;25.06;35.75;101774.00;5030397;28;20453;-67
2023/06/15 02:22:22;;;;;;;5.60;3.90;;;;;;;25.10;36.02;101786.03;5030582;28;20041;-66
2023/06/15 02:24:48;;;;;;;6.03;3.97;;;;;;;25.10;35.60;101796.69;5030570;28;20049;-66
2023/06/15 02:27:13;;;;;;;4.95;3.85;;;;;;;25.09;36.11;101795.03;5029761;28;20028;-66
2023/06/15 02:29:39;;;;;;;6.25;4.30;;;;;;;25.09;36.13;101797.72;5030377;28;20036;-66
2023/06/15 02:32:04;;;;;;;5.25;3.78;;;;;;;25.04;36.00;101795.47;5034608;28;20577;-66
2023/06/15 02:34:30;;;;;;;4.80;3.45;;;;;;;25.03;35.93;101796.47;5033873;28;20040;-66
2023/06/15 02:36:55;;;;;;;6.55;4.20;;;;;;;25.01;36.01;101787.78;5034638;28;20028;-66
2023/06/15 02:39:21;;;;;;;5.40;4.13;;;;;;;25.08;36.14;101798.69;5033821;28;20029;-67
2023/06/15 02:41:46;;;;;;;5.28;3.90;;;;;;;25.05;36.26;101804.31;5034516;28;20043;-67
2023/06/15 02:44:12;;;;;;;5.72;3.92;;;;;;;25.05;35.61;101805.16;5033994;28;20484;-68
2023/06/15 02:46:37;;;;;;;5.72;3.88;;;;;;;25.05;36.00;101809.66;5034055;28;20032;-68
2023/06/15 02:49:02;;;;;;;6.72;3.90;;;;;;;25.02;36.12;101805.44;5034341;28;20572;-67
2023/06/15 02:51:28;;;;;;;4.90;3.80;;;;;;;25.06;35.94;101809.50;5034789;28;20075;-66
2023/06/15 02:53:53;;;;;;;5.28;4.03;;;;;;;25.03;35.75;101801.78;5033780;28;20266;-68
2023/06/15 02:56:20;;;;;;;5.13;3.95;;;;;;;25.02;36.18;101808.09;5034654;28;20370;-67
2023/06/15 02:58:53;;;;;;;6.07;3.97;;;;;;;25.04;35.69;101805.28;5034043;28;20110;-66
2023/06/15 03:01:20;;;;;;;4.93;3.67;;;;;;;25.05;35.96;101813.13;5034327;28;20071;-66
2023/06/15 03:03:45;;;;;;;6.03;3.75;;;;;;;25.02;36.02;101816.09;5033986;28;20029;-66
2023/06/15 03:06:11;;;;;;;5.82;3.70;;;;;;;25.04;36.04;101808.81;5034314;28;20128;-67
2023/06/15 03:08:38;;;;;;;4.82;3.75;;;;;;;25.01;36.08;101813.59;5034106;28;20033;-68
2023/06/15 03:11:03;;;;;;;7.03;3.85;;;;;;;25.00;35.84;101812.75;5033786;28;20752;-66
2023/06/15 03:13:30;;;;;;;4.45;3.45;;;;;;;25.03;35.82;101814.28;5033794;28;20021;-66
2023/06/15 03:15:56;;;;;;;5.15;4.22;;;;;;;25.00;36.25;101812.75;5034277;28;20044;-67
2023/06/15 03:18:21;;;;;;;5.35;3.60;;;;;;;25.00;35.88;101810.09;5034079;28;20111;-67
2023/06/15 03:20:52;;;;;;;5.95;4.18;;;;;;;25.02;35.94;101817.94;5033846;28;20037;-67
2023/06/15 03:23:21;;;;;;;6.43;4.05;;;;;;;25.01;36.11;101813.59;5033777;28;20061;-68
2023/06/15 03:25:47;;;;;;;5.90;4.10;;;;;;;25.01;36.24;101810.91;5033669;28;20037;-67
2023/06/15 03:28:12;;;;;;;5.57;3.92;;;;;;;25.01;35.88;101813.59;5033412;28;20447;-66
2023/06/15 03:30:40;;;;;;;6.88;4.25;;;;;;;24.97;36.00;101807.72;5033501;28;20025;-66
2023/06/15 03:33:06;;;;;;;5.90;4.13;;;;;;;24.98;35.78;101812.91;5033417;28;20032;-66
2023/06/15 03:35:32;;;;;;;5.85;3.92;;;;;;;24.99;36.06;101816.41;5033751;28;20036;-66
2023/06/15 03:37:57;;;;;;;7.28;4.20;;;;;;;25.00;36.30;101815.41;5033763;28;20042;-66
2023/06/15 03:40:22;;;;;;;5.27;4.20;;;;;;;24.96;35.76;101812.22;5033467;28;20037;-68
2023/06/15 03:42:48;;;;;;;5.30;4.10;;;;;;;24.98;36.33;101810.22;5031732;28;20750;-67
2023/06/15 03:45:13;;;;;;;6.10;4.07;;;;;;;24.96;36.28;101808.72;5032824;28;20396;-67
2023/06/15 03:47:38;;;;;;;6.72;4.10;;;;;;;24.96;35.96;101812.22;5032702;28;20263;-66
2023/06/15 03:50:06;;;;;;;5.65;3.90;;;;;;;24.97;36.32;101816.53;5032851;28;20389;-65
2023/06/15 03:52:33;;;;;;;6.82;3.83;;;;;;;24.95;36.43;101815.03;5032647;28;20033;-68
2023/06/15 03:54:59;;;;;;;6.13;3.95;;;;;;;24.93;36.30;101801.84;5033522;28;20497;-67
2023/06/15 03:57:24;;;;;;;5.32;3.80;;;;;;;24.94;36.30;101814.19;5032072;28;20037;-65
2023/06/15 03:59:49;;;;;;;5.65;3.80;;;;;;;24.96;36.13;101822.88;5032774;28;20087;-65
2023/06/15 04:02:14;;;;;;;7.33;4.10;;;;;;;24.93;36.09;101820.50;5031458;28;20029;-67
2023/06/15 04:04:40;;;;;;;6.27;4.10;;;;;;;24.93;35.96;101819.69;5033005;28;20373;-66
2023/06/15 04:07:06;;;;;;;6.20;4.30;;;;;;;24.91;35.99;101817.16;5032583;28;20269;-66
2023/06/15 04:09:32;;;;;;;5.38;3.70;;;;;;;24.94;35.97;101824.00;5032943;28;20273;-66
2023/06/15 04:11:57;;;;;;;5.45;4.10;;;;;;;24.92;36.33;101824.16;5032469;28;20045;-67
2023/06/15 04:14:22;;;;;;;4.97;3.97;;;;;;;24.90;35.96;101826.13;5031182;28;20043;-67
2023/06/15 04:16:47;;;;;;;5.53;3.80;;;;;;;24.93;36.29;101825.00;5032155;28;20317;-65
2023/06/15 04:19:13;;;;;;;5.20;3.90;;;;;;;24.91;36.54;101837.63;5032857;28;20027;-67
2023/06/15 04:21:38;;;;;;;5.95;4.10;;;;;;;24.90;36.13;101835.97;5032668;28;20254;-68
2023/06/15 04:24:03;;;;;;;6.18;4.13;;;;;;;24.93;36.40;101844.50;5032826;28;20033;-66
2023/06/15 04:26:29;;;;;;;6.55;4.15;;;;;;;24.91;36.30;101840.28;5031773;28;20041;-65
2023/06/15 04:28:57;;;;;;;5.93;4.10;;;;;;;24.91;36.32;101845.63;5032752;28;20033;-66
2023/06/15 04:31:24;;;;;;;5.43;3.80;;;;;;;24.91;35.98;101848.28;5039125;28;20360;-67
2023/06/15 04:33:50;;;;;;;6.68;4.10;;;;;;;24.91;36.59;101850.94;5032421;28;20086;-67
2023/06/15 04:36:16;;;;;;;5.72;3.97;;;;;;;24.91;36.53;101848.28;5032674;28;20032;-67
2023/06/15 04:38:49;;;;;;;6.57;4.03;;;;;;;24.90;36.35;101850.13;5032318;28;20033;-67
2023/06/15 04:41:16;;;;;;;5.00;4.00;;;;;;;24.90;36.35;101851.97;5032752;28;20481;-67
2023/06/15 04:43:42;;;;;;;5.60;4.00;;;;;;;24.89;36.50;101853.75;5031620;28;20029;-68
2023/06/15 04:46:07;;;;;;;6.82;4.68;;;;;;;24.91;36.17;101851.81;5031653;28;20036;-67
2023/06/15 04:48:33;;;;;;;6.55;4.32;;;;;;;24.89;36.60;101851.09;5032674;28;20389;-66
2023/06/15 04:50:59;;;;;;;5.55;4.10;;;;;;;24.89;36.16;101853.75;5031980;28;20858;-67
2023/06/15 04:53:24;;;;;;;5.50;4.15;;;;;;;24.90;36.51;101858.13;5030753;28;20033;-66
2023/06/15 04:55:50;;;;;;;5.45;4.00;;;;;;;24.90;36.72;101859.97;5032236;28;20064;-67
2023/06/15 04:58:15;;;;;;;5.63;3.95;;;;;;;24.88;36.49;101859.25;5031666;28;20033;-67
2023/06/15 05:00:41;;;;;;;6.43;4.03;;;;;;;24.90;36.26;101866.13;5031520;28;20033;-66
2023/06/15 05:03:06;;;;;;;5.75;4.30;;;;;;;24.89;36.29;101858.25;5030942;28;20057;-66
2023/06/15 05:05:32;;;;;;;5.40;4.18;;;;;;;24.86;36.45;101854.06;5031852;28;20084;-66
2023/06/15 05:07:57;;;;;;;5.72;4.22;;;;;;;24.84;36.49;101852.53;5031829;28;20477;-68
2023/06/15 05:10:22;;;;;;;6.00;4.10;;;;;;;24.88;36.24;101860.09;5031209;28;20033;-68
2023/06/15 05:12:47;;;;;;;7.13;4.13;;;;;;;24.90;36.61;101866.13;5031868;28;20662;-68
2023/06/15 05:15:13;;;;;;;5.70;4.27;;;;;;;24.90;36.78;101866.13;5031184;28;20029;-67
2023/06/15 05:17:38;;;;;;;5.70;4.13;;;;;;;24.91;36.63;101869.63;5038422;28;20360;-66
2023/06/15 05:20:05;;;;;;;6.77;4.20;;;;;;;24.91;36.48;101867.81;5031322;28;20096;-66
2023/06/15 05:22:31;;;;;;;7.55;4.65;;;;;;;24.92;36.44;101866.81;5031318;28;20305;-66
2023/06/15 05:24:56;;;;;;;6.13;4.20;;;;;;;24.89;36.69;101863.59;5030943;28;20057;-67
2023/06/15 05:27:21;;;;;;;5.60;4.40;;;;;;;24.92;36.29;101868.66;5031797;28;20067;-66
2023/06/15 05:29:47;;;;;;;5.97;4.27;;;;;;;24.93;36.45;101865.84;5031055;28;20057;-67
2023/06/15 05:32:12;;;;;;;6.25;4.38;;;;;;;24.91;36.43;101869.63;5030884;28;20782;-68
2023/06/15 05:34:37;;;;;;;5.43;4.13;;;;;;;24.92;36.83;101869.47;5031192;28;20477;-68
2023/06/15 05:37:03;;;;;;;7.97;4.75;;;;;;;24.94;36.33;101872.84;5031418;28;20029;-65
2023/06/15 05:39:28;;;;;;;5.53;4.28;;;;;;;24.92;36.35;101868.66;5030933;28;20032;-65
2023/06/15 05:41:53;;;;;;;7.30;4.50;;;;;;;24.96;36.53;101872.72;5029917;28;20144;-64
2023/06/15 05:44:19;;;;;;;6.35;4.72;;;;;;;24.96;36.41;101878.03;5030630;28;20067;-66
2023/06/15 05:46:44;;;;;;;5.65;4.25;;;;;;;24.94;37.00;101869.31;5030692;28;20033;-67
2023/06/15 05:49:09;;;;;;;7.65;4.60;;;;;;;24.96;36.97;101873.53;5037924;28;20087;-67
2023/06/15 05:51:35;;;;;;;6.13;4.53;;;;;;;24.95;36.70;101873.69;5030232;28;20032;-67
2023/06/15 05:54:00;;;;;;;6.63;4.20;;;;;;;24.96;36.96;101884.22;5032003;28;20041;-66
2023/06/15 05:56:26;;;;;;;7.45;4.80;;;;;;;24.96;36.55;101873.53;5029607;28;20579;-66
2023/06/15 05:58:51;;;;;;;6.15;4.53;;;;;;;24.96;36.40;101878.03;5030359;28;20039;-66
2023/06/15 06:01:16;;;;;;;6.30;4.40;;;;;;;24.96;36.58;101880.72;5030417;28;20048;-66
2023/06/15 06:03:41;;;;;;;8.87;4.57;;;;;;;24.92;36.52;101874.81;5030332;28;20100;-67
2023/06/15 06:06:07;;;;;;;9.00;4.90;;;;;;;24.94;37.05;101872.00;5031337;28;20670;-69
2023/06/15 06:08:32;;;;;;;6.50;4.85;;;;;;;24.92;36.59;101871.31;5035953;28;20273;-65
2023/06/15 06:10:57;;;;;;;13.15;6.10;;;;;;;24.87;36.46;101866.41;5035116;28;20033;-65
2023/06/15 06:13:23;;;;;;;9.23;5.90;;;;;;;24.82;36.29;101868.69;5034754;28;20032;-67
2023/06/15 06:15:48;;;;;;;11.75;6.45;;;;;;;24.74;36.35;101872.06;5034897;28;20031;-66
2023/06/15 06:18:13;;;;;;;8.87;6.10;;;;;;;24.63;36.49;101872.22;5034227;28;20084;-67
2023/06/15 06:20:38;;;;;;;10.80;6.07;;;;;;;24.47;36.69;101880.78;5032898;28;20079;-65
2023/06/15 06:23:04;;;;;;;9.82;6.22;;;;;;;24.25;37.16;101869.41;5034778;28;20099;-68
2023/06/15 06:25:29;;;;;;;11.52;6.18;;;;;;;24.06;37.62;101869.41;5034653;28;20124;-67
2023/06/15 06:27:54;;;;;;;9.45;6.00;;;;;;;23.86;37.90;101871.22;5034096;28;20029;-67
2023/06/15 06:30:20;;;;;;;12.57;5.80;;;;;;;23.75;38.09;101866.84;5033899;28;20694;-67
2023/06/15 06:32:45;;;;;;;10.30;5.53;;;;;;;23.64;37.88;101858.94;5034547;28;20320;-68
2023/06/15 06:35:10;;;;;;;11.18;5.97;;;;;;;23.55;38.08;101866.78;5034578;28;20121;-68
2023/06/15 06:37:36;;;;;;;9.40;5.68;;;;;;;23.50;38.78;101870.84;5034755;28;20037;-67
2023/06/15 06:40:03;;;;;;;7.97;5.82;;;;;;;23.43;38.64;101869.69;5034540;28;20025;-66
2023/06/15 06:42:28;;;;;;;13.10;5.80;;;;;;;23.42;39.54;101871.50;5033802;28;20057;-65
2023/06/15 06:44:54;;;;;;;11.60;6.38;;;;;;;23.36;40.50;101872.88;5034436;28;20072;-67
2023/06/15 06:47:19;;;;;;;16.03;6.20;;;;;;;23.28;40.18;101877.19;5035306;28;20271;-68
2023/06/15 06:49:44;;;;;;;14.18;5.95;;;;;;;23.18;40.48;101870.03;5034387;28;20273;-68
2023/06/15 06:52:09;;;;;;;9.63;5.38;;;;;;;23.11;40.68;101876.00;5033940;28;20335;-66
2023/06/15 06:54:35;;;;;;;9.68;5.47;;;;;;;23.14;41.27;101873.91;5034289;28;20087;-69
2023/06/15 06:57:01;;;;;;;14.02;5.25;;;;;;;23.24;40.70;101873.97;5033007;28;20029;-68
2023/06/15 06:59:26;;;;;;;12.27;5.82;;;;;;;23.41;40.09;101875.13;5034062;28;20470;-73
2023/06/15 07:01:52;;;;;;;11.98;5.05;;;;;;;23.57;39.47;101879.94;5033440;28;20034;-71
2023/06/15 07:04:17;;;;;;;8.98;5.47;;;;;;;23.71;39.43;101876.06;5032103;28;20033;-69
2023/06/15 07:06:42;;;;;;;11.45;5.57;;;;;;;23.78;39.47;101873.69;5033165;28;20033;-68
2023/06/15 07:09:08;;;;;;;10.93;5.30;;;;;;;23.89;39.23;101876.25;5032842;28;20502;-67
2023/06/15 07:11:33;;;;;;;11.93;5.10;;;;;;;23.97;39.52;101873.75;5033560;28;20295;-71
2023/06/15 07:13:58;;;;;;;15.15;5.90;;;;;;;24.02;39.19;101881.31;5033299;28;20445;-69
2023/06/15 07:16:24;;;;;;;14.55;6.20;;;;;;;24.08;39.07;101883.44;5039051;28;20037;-67
2023/06/15 07:18:49;;;;;;;12.13;5.47;;;;;;;24.14;39.38;101882.88;5032852;28;20028;-67
2023/06/15 07:21:15;;;;;;;14.82;6.00;;;;;;;24.18;38.77;101878.09;5033530;28;20037;-66
2023/06/15 07:23:40;;;;;;;15.30;5.18;;;;;;;24.12;38.08;101881.34;5031582;28;20045;-68
2023/06/15 07:26:05;;;;;;;13.35;5.47;;;;;;;24.12;38.74;101886.69;5033264;28;20083;-68
2023/06/15 07:28:30;;;;;;;10.20;5.13;;;;;;;24.14;38.45;101882.03;5034072;28;20127;-67
2023/06/15 07:30:56;;;;;;;12.13;5.67;;;;;;;24.15;38.62;101886.38;5033587;28;20033;-68
2023/06/15 07:33:22;;;;;;;14.15;5.25;;;;;;;24.16;39.12;101886.22;5032177;28;20277;-68
2023/06/15 07:35:47;;;;;;;8.48;4.72;;;;;;;24.19;39.60;101893.94;5033659;28;20525;-66
2023/06/15 07:38:14;;;;;;;9.73;4.90;;;;;;;24.24;39.50;101897.06;5032334;28;20029;-68
2023/06/15 07:40:40;;;;;;;7.47;4.25;;;;;;;24.30;39.70;101886.81;5031941;28;20223;-67
2023/06/15 07:43:05;;;;;;;10.02;4.47;;;;;;;24.35;39.06;101892.56;5031898;28;20029;-64
2023/06/15 07:45:31;;;;;;;7.45;4.20;;;;;;;24.43;38.26;101888.22;5032239;28;20127;-68
2023/06/15 07:47:56;;;;;;;8.23;4.30;;;;;;;24.51;38.43;101891.97;5032323;28;20061;-69
2023/06/15 07:50:21;;;;;;;9.23;4.33;;;;;;;24.56;37.85;101892.38;5032305;28;20265;-67
2023/06/15 07:52:48;;;;;;;9.90;4.50;;;;;;;24.60;38.35;101891.16;5032212;28;20331;-67
2023/06/15 07:55:13;;;;;;;10.18;4.18;;;;;;;24.60;38.50;101883.16;5031174;28;20039;-67
2023/06/15 07:57:39;;;;;;;7.20;4.07;;;;;;;24.70;38.16;101889.31;5032627;28;20033;-68
2023/06/15 08:00:06;;;;;;;11.70;4.40;;;;;;;24.71;38.78;101890.16;5032969;28;20034;-66
2023/06/15 08:02:31;;;;;;;10.13;4.50;;;;;;;24.68;38.99;101890.44;5033176;28;20555;-67
2023/06/15 08:04:57;;;;;;;8.90;4.50;;;;;;;24.67;39.17;101886.09;5031083;28;20156;-66
2023/06/15 08:07:22;;;;;;;8.50;4.72;;;;;;;24.69;39.12;101892.13;5032869;28;20037;-65
2023/06/15 08:09:47;;;;;;;7.47;4.47;;;;;;;24.71;39.14;101890.16;5032393;28;20127;-67
2023/06/15 08:12:13;;;;;;;8.35;4.70;;;;;;;24.73;39.18;101896.19;5033196;28;20271;-65
2023/06/15 08:14:38;;;;;;;6.55;4.18;;;;;;;24.75;39.33;101894.22;5032715;28;20040;-65
2023/06/15 08:17:04;;;;;;;9.52;4.95;;;;;;;24.74;39.36;101881.88;5032622;28;20085;-66
2023/06/15 08:19:29;;;;;;;8.70;3.83;;;;;;;24.76;39.46;101887.91;5032223;28;20439;-65
2023/06/15 08:21:55;;;;;;;9.13;4.40;;;;;;;24.78;39.30;101892.13;5033125;28;20029;-65
2023/06/15 08:24:20;;;;;;;7.43;4.30;;;;;;;24.77;39.34;101887.75;5032311;28;20116;-65
2023/06/15 08:26:48;;;;;;;8.85;5.03;;;;;;;24.80;38.91;101889.28;5033179;28;20037;-65
2023/06/15 08:29:14;;;;;;;7.53;4.28;;;;;;;24.82;38.86;101890.00;5031454;28;20495;-65
2023/06/15 08:31:40;;;;;;;8.88;4.60;;;;;;;24.83;39.35;101882.84;5031965;28;20069;-67
2023/06/15 08:34:07;;;;;;;8.65;4.63;;;;;;;24.81;39.23;101889.13;5032378;28;20033;-66
2023/06/15 08:36:32;;;;;;;7.72;4.22;;;;;;;24.84;38.96;101889.84;5032138;28;20072;-66
2023/06/15 08:38:58;;;;;;;8.00;4.25;;;;;;;24.86;39.07;101891.38;5032312;28;20124;-65
2023/06/15 08:41:26;;;;;;;6.80;4.77;;;;;;;24.84;38.79;101884.53;5032150;28;20024;-66
2023/06/15 08:43:53;;;;;;;7.22;4.10;;;;;;;24.86;38.58;101880.72;5032089;28;20269;-67
2023/06/15 08:46:21;;;;;;;5.88;4.13;;;;;;;24.87;39.21;101876.25;5032103;28;20032;-65
2023/06/15 08:48:46;;;;;;;8.15;5.32;;;;;;;24.86;38.60;101883.38;5032439;28;20389;-66
2023/06/15 08:51:12;;;;;;;7.07;4.45;;;;;;;24.87;39.09;101884.25;5031455;28;20439;-66
2023/06/15 08:53:42;;;;;;;6.95;4.47;;;;;;;24.89;38.54;101877.75;5031902;28;20026;-66
2023/06/15 08:56:11;;;;;;;6.88;4.30;;;;;;;24.89;38.53;101887.59;5031982;28;20037;-66
2023/06/15 08:58:37;;;;;;;8.05;4.75;;;;;;;24.90;38.45;101881.28;5032071;28;20099;-65
2023/06/15 09:01:02;;;;;;;7.18;4.55;;;;;;;24.91;38.68;101881.16;5031778;28;20437;-66
2023/06/15 09:03:29;;;;;;;6.35;4.38;;;;;;;24.90;38.50;101874.13;5032032;28;20129;-67
2023/06/15 09:05:54;;;;;;;10.15;4.22;;;;;;;24.91;38.77;101872.28;5031786;28;20107;-66
2023/06/15 09:08:20;;;;;;;7.13;4.40;;;;;;;24.93;38.54;101881.81;5031780;28;20128;-67
2023/06/15 09:10:45;;;;;;;6.20;4.38;;;;;;;24.93;38.69;101879.16;5031809;28;20115;-67
2023/06/15 09:13:18;;;;;;;6.80;4.47;;;;;;;24.94;38.56;101880.84;5031637;28;20125;-68
2023/06/15 09:15:50;;;;;;;7.60;4.20;;;;;;;24.92;37.94;101880.13;5031298;28;20353;-67
2023/06/15 09:18:15;;;;;;;6.90;4.60;;;;;;;24.93;38.37;101875.66;5031691;28;20080;-66
2023/06/15 09:20:41;;;;;;;7.35;4.45;;;;;;;24.94;38.42;101874.66;5031699;28;20075;-67
2023/06/15 09:23:10;;;;;;;6.13;4.30;;;;;;;24.93;38.53;101881.81;5031243;28;20041;-67
2023/06/15 09:25:36;;;;;;;8.02;4.93;;;;;;;24.95;38.06;101884.34;5030869;28;20026;-67
2023/06/15 09:28:06;;;;;;;7.93;4.15;;;;;;;24.94;38.16;101872.00;5031602;28;20037;-65
2023/06/15 09:30:32;;;;;;;7.00;4.20;;;;;;;24.96;38.46;101876.22;5030479;28;20038;-65
2023/06/15 09:32:59;;;;;;;6.88;4.50;;;;;;;24.98;38.09;101878.72;5031087;28;20038;-67
2023/06/15 09:35:25;;;;;;;9.02;4.50;;;;;;;24.98;37.88;101884.91;5029617;28;20032;-70
2023/06/15 09:37:52;;;;;;;6.90;4.07;;;;;;;24.99;37.92;101872.38;5031074;28;20036;-72
2023/06/15 09:40:18;;;;;;;9.60;4.20;;;;;;;25.06;37.83;101870.00;5028759;28;20068;-67
2023/06/15 09:42:49;;;;;;;8.90;4.32;;;;;;;25.09;38.24;101869.72;5029953;28;20040;-66
2023/06/15 09:45:15;;;;;;;5.15;3.50;;;;;;;25.13;37.63;101861.28;5029999;28;20037;-68
2023/06/15 09:47:40;;;;;;;9.02;4.20;;;;;;;25.15;38.02;101863.78;5030552;28;20029;-67
2023/06/15 09:50:10;;;;;;;7.22;3.80;;;;;;;25.17;37.86;101856.47;5030027;28;20538;-67
2023/06/15 09:52:48;;;;;;;5.32;3.75;;;;;;;25.20;37.85;101864.19;5029873;28;20401;-70
2023/06/15 09:55:15;;;;;;;7.38;3.88;;;;;;;25.25;37.86;101864.59;5030611;28;20068;-67
2023/06/15 09:57:41;;;;;;;6.47;3.92;;;;;;;25.26;37.73;101870.75;5030513;28;20022;-68
2023/06/15 10:00:08;;;;;;;7.55;3.72;;;;;;;25.24;37.59;101865.56;5030188;28;20027;-69
2023/06/15 10:02:59;;;;;;;6.25;3.65;;;;;;;25.26;37.69;101862.75;5030021;28;20038;-67
2023/06/15 10:05:31;;;;;;;6.13;3.60;;;;;;;25.28;37.76;101869.66;5029709;28;20045;-69
2023/06/15 10:08:04;;;;;;;5.80;3.60;;;;;;;25.29;37.34;101866.00;5031627;28;20041;-69
2023/06/15 10:10:30;;;;;;;6.03;3.30;;;;;;;25.32;37.61;101871.03;5029226;28;20033;-69
2023/06/15 10:13:00;;;;;;;7.80;3.53;;;;;;;25.33;37.31;101867.38;5029730;28;20088;-68
2023/06/15 10:15:28;;;;;;;5.95;4.22;;;;;;;25.32;37.50;101863.03;5030762;28;20556;-67
2023/06/15 10:17:56;;;;;;;7.70;3.83;;;;;;;25.35;37.37;101868.06;5029551;28;20061;-67
2023/06/15 10:20:24;;;;;;;5.97;3.80;;;;;;;25.35;37.11;101862.72;5030513;28;20041;-70
2023/06/15 10:22:54;;;;;;;7.22;3.45;;;;;;;25.38;36.99;101860.78;5030153;28;20032;-71
2023/06/15 10:25:21;;;;;;;8.05;3.38;;;;;;;25.28;37.06;101858.97;5030793;28;20033;-72
2023/06/15 10:27:47;;;;;;;7.28;3.50;;;;;;;25.37;37.58;101861.75;5031167;28;20607;-73
2023/06/15 10:30:25;;;;;;;5.57;3.70;;;;;;;25.31;37.71;101865.84;5030429;28;20029;-73
2023/06/15 10:32:59;;;;;;;6.20;3.70;;;;;;;25.28;37.47;101858.16;5030207;28;20390;-76
2023/06/15 10:35:32;;;;;;;4.65;3.30;;;;;;;25.24;37.60;101862.06;5029985;28;20036;-74
2023/06/15 10:38:15;;;;;;;5.53;3.42;;;;;;;25.24;37.89;101867.41;5031348;28;20389;-72
2023/06/15 10:40:47;;;;;;;7.30;3.78;;;;;;;25.24;37.90;101864.72;5030270;28;20039;-72
2023/06/15 10:43:19;;;;;;;7.43;3.65;;;;;;;25.21;37.63;101857.03;5029782;28;20033;-71
2023/06/15 10:45:46;;;;;;;5.45;3.40;;;;;;;25.26;37.50;101860.94;5029464;28;20040;-69
2023/06/15 10:48:23;;;;;;;5.90;3.63;;;;;;;25.29;37.53;101860.69;5028368;28;20055;-69
2023/06/15 10:50:51;;;;;;;4.68;3.33;;;;;;;25.37;37.40;101861.75;5028218;28;20033;-67
2023/06/15 10:53:33;;;;;;;8.52;3.40;;;;;;;25.37;37.68;101859.91;5031826;28;20036;-68
2023/06/15 10:55:59;;;;;;;7.07;3.28;;;;;;;25.39;37.82;101860.63;5024175;28;20064;-69
2023/06/15 10:58:27;;;;;;;7.13;3.38;;;;;;;25.38;37.62;101856.25;5033775;28;20071;-67
2023/06/15 11:01:07;;;;;;;5.30;3.22;;;;;;;25.35;37.24;101859.22;5033104;28;20041;-69
2023/06/15 11:03:33;;;;;;;5.60;3.10;;;;;;;25.35;37.40;101857.38;5033444;28;20056;-68
2023/06/15 11:06:07;;;;;;;5.70;3.35;;;;;;;25.37;37.94;101862.56;5030154;28;20033;-68
2023/06/15 11:08:50;;;;;;;6.15;3.50;;;;;;;25.39;37.66;101857.09;5033253;28;20401;-69
2023/06/15 11:11:19;;;;;;;5.57;3.90;;;;;;;25.42;37.25;101852.31;5032614;28;20026;-69
2023/06/15 11:13:55;;;;;;;5.88;3.28;;;;;;;25.45;37.58;101856.50;5033748;28;20111;-69
2023/06/15 11:16:35;;;;;;;6.07;3.40;;;;;;;25.45;37.40;101862.69;5032544;28;20033;-70
2023/06/15 11:19:10;;;;;;;5.53;3.30;;;;;;;25.50;37.61;101859.56;5033994;28;20032;-71
2023/06/15 11:21:37;;;;;;;5.60;3.50;;;;;;;25.51;37.40;101859.41;5032941;28;20132;-67